createdAt,value
2018-08-12T00:00:35.876Z,12.50
2018-08-12T00:03:04.637Z,12.50
2018-08-12T00:05:34.352Z,12.40
2018-08-12T00:08:04.300Z,12.40
2018-08-12T00:10:35.916Z,12.40
2018-08-12T00:13:04.608Z,12.40
2018-08-12T00:15:34.471Z,12.30
2018-08-12T00:18:04.789Z,12.30
2018-08-12T00:20:32.995Z,12.40
2018-08-12T00:23:02.679Z,12.40
2018-08-12T00:25:34.083Z,12.30
2018-08-12T00:28:03.088Z,12.30
2018-08-12T00:30:31.640Z,11.80
2018-08-12T00:33:01.473Z,11.70
2018-08-12T00:35:31.069Z,11.80
2018-08-12T00:37:59.923Z,11.70
2018-08-12T00:40:28.133Z,11.50
2018-08-12T00:42:57.709Z,11.50
2018-08-12T00:45:27.493Z,11.70
2018-08-12T00:47:55.871Z,11.50
2018-08-12T00:50:25.443Z,11.30
2018-08-12T00:52:53.596Z,11.40
2018-08-12T00:55:22.662Z,11.50
2018-08-12T00:57:52.444Z,11.40
2018-08-12T01:00:25.580Z,11.50
2018-08-12T01:02:53.780Z,11.60
2018-08-12T01:05:22.572Z,11.50
2018-08-12T01:07:51.823Z,11.30
2018-08-12T01:10:21.385Z,11.20
2018-08-12T01:12:50.687Z,10.90
2018-08-12T01:15:21.212Z,11.00
2018-08-12T01:17:49.367Z,10.70
2018-08-12T01:20:21.700Z,10.70
2018-08-12T01:22:52.072Z,10.70
2018-08-12T01:25:22.736Z,10.60
2018-08-12T01:27:56.552Z,10.70
2018-08-12T01:30:27.791Z,10.90
2018-08-12T01:32:56.033Z,10.90
2018-08-12T01:35:24.195Z,11.00
2018-08-12T01:37:53.370Z,11.00
2018-08-12T01:40:21.596Z,10.80
2018-08-12T01:42:49.784Z,10.60
2018-08-12T01:45:19.476Z,10.30
2018-08-12T01:47:48.128Z,10.20
2018-08-12T01:50:17.918Z,10.10
2018-08-12T01:52:46.727Z,10.00
2018-08-12T01:55:15.826Z,10.00
2018-08-12T01:57:45.239Z,10.10
2018-08-12T02:00:18.395Z,10.10
2018-08-12T02:02:48.240Z,10.00
2018-08-12T02:05:17.029Z,10.10
2018-08-12T02:07:46.119Z,10.10
2018-08-12T02:10:19.706Z,10.20
2018-08-12T02:12:48.222Z,10.20
2018-08-12T02:15:17.155Z,10.30
2018-08-12T02:17:45.672Z,10.40
2018-08-12T02:20:15.180Z,10.40
2018-08-12T02:22:43.666Z,10.50
2018-08-12T02:25:12.956Z,10.50
2018-08-12T02:27:42.399Z,10.70
2018-08-12T02:30:12.073Z,10.80
2018-08-12T02:32:42.036Z,11.00
2018-08-12T02:35:11.122Z,11.00
2018-08-12T02:37:40.821Z,11.10
2018-08-12T02:40:10.699Z,11.10
2018-08-12T02:42:38.856Z,10.90
2018-08-12T02:45:13.936Z,10.70
2018-08-12T02:47:46.864Z,10.50
2018-08-12T02:50:15.015Z,10.40
2018-08-12T02:52:43.159Z,10.40
2018-08-12T02:55:12.868Z,10.40
2018-08-12T02:57:42.375Z,10.40
2018-08-12T03:00:12.208Z,10.40
2018-08-12T03:02:41.360Z,10.20
2018-08-12T03:05:10.217Z,9.90
2018-08-12T03:07:39.172Z,9.80
2018-08-12T03:10:08.534Z,9.90
2018-08-12T03:12:36.764Z,10.00
2018-08-12T03:15:07.505Z,10.00
2018-08-12T03:17:39.243Z,9.80
2018-08-12T03:20:09.636Z,9.80
2018-08-12T03:25:27.676Z,9.90
2018-08-12T03:27:56.867Z,10.00
2018-08-12T03:30:26.601Z,10.00
2018-08-12T03:32:54.892Z,10.10
2018-08-12T03:35:24.948Z,10.00
2018-08-12T03:37:55.732Z,9.90
2018-08-12T03:40:23.900Z,9.70
2018-08-12T03:42:53.037Z,9.60
2018-08-12T03:45:22.186Z,9.50
2018-08-12T03:47:50.863Z,9.50
2018-08-12T03:50:20.028Z,9.40
2018-08-12T03:52:54.991Z,9.30
2018-08-12T03:55:23.122Z,9.20
2018-08-12T03:57:51.279Z,9.20
2018-08-12T04:00:20.423Z,9.30
2018-08-12T04:02:50.046Z,9.40
2018-08-12T04:05:18.999Z,9.40
2018-08-12T04:07:48.187Z,9.30
2018-08-12T04:10:16.339Z,9.20
2018-08-12T04:12:45.565Z,9.40
2018-08-12T04:15:13.789Z,9.40
2018-08-12T04:17:42.811Z,9.30
2018-08-12T04:20:12.307Z,9.40
2018-08-12T04:22:41.870Z,9.30
2018-08-12T04:25:11.091Z,9.30
2018-08-12T04:27:40.568Z,9.20
2018-08-12T04:30:10.761Z,9.30
2018-08-12T04:32:42.260Z,9.50
2018-08-12T04:35:10.408Z,9.50
2018-08-12T04:37:39.549Z,9.40
2018-08-12T04:40:08.760Z,9.40
2018-08-12T04:42:37.255Z,9.60
2018-08-12T04:45:06.388Z,9.70
2018-08-12T04:47:35.443Z,9.70
2018-08-12T04:50:05.906Z,9.80
2018-08-12T04:52:34.250Z,9.80
2018-08-12T04:55:03.541Z,9.80
2018-08-12T04:57:33.432Z,10.10
2018-08-12T05:00:08.084Z,10.40
2018-08-12T05:02:36.271Z,10.70
2018-08-12T05:05:06.253Z,10.90
2018-08-12T05:07:34.760Z,11.10
2018-08-12T05:10:04.125Z,11.20
2018-08-12T05:12:32.272Z,11.50
2018-08-12T05:15:02.202Z,12.10
2018-08-12T05:17:32.028Z,12.60
2018-08-12T05:20:00.248Z,13.00
2018-08-12T05:22:30.720Z,13.40
2018-08-12T05:24:59.984Z,13.70
2018-08-12T05:27:29.631Z,14.10
2018-08-12T05:29:59.003Z,14.40
2018-08-12T05:32:29.220Z,14.60
2018-08-12T05:34:58.928Z,15.10
2018-08-12T05:37:34.116Z,15.50
2018-08-12T05:40:03.603Z,15.60
2018-08-12T05:42:35.095Z,15.90
2018-08-12T05:45:05.430Z,16.10
2018-08-12T05:47:34.836Z,16.20
2018-08-12T05:50:05.185Z,16.30
2018-08-12T05:52:35.869Z,16.60
2018-08-12T05:55:07.239Z,17.00
2018-08-12T05:57:36.179Z,17.50
2018-08-12T06:00:06.020Z,18.00
2018-08-12T06:02:35.532Z,18.30
2018-08-12T06:05:05.697Z,18.60
2018-08-12T06:10:10.814Z,19.30
2018-08-12T06:12:39.866Z,19.50
2018-08-12T06:15:11.408Z,19.90
2018-08-12T06:17:39.602Z,20.40
2018-08-12T06:20:11.999Z,20.40
2018-08-12T06:22:41.372Z,20.50
2018-08-12T06:25:10.612Z,20.80
2018-08-12T06:27:40.400Z,20.90
2018-08-12T06:30:12.236Z,20.60
2018-08-12T06:32:40.452Z,20.30
2018-08-12T06:35:10.427Z,20.50
2018-08-12T06:37:39.728Z,20.90
2018-08-12T06:40:11.852Z,21.00
2018-08-12T06:42:41.445Z,21.40
2018-08-12T06:45:12.321Z,21.70
2018-08-12T06:47:42.396Z,21.90
2018-08-12T06:50:13.149Z,22.00
2018-08-12T06:52:41.865Z,22.10
2018-08-12T06:55:11.406Z,22.40
2018-08-12T06:57:40.708Z,22.60
2018-08-12T07:00:12.276Z,23.10
2018-08-12T07:02:41.334Z,23.60
2018-08-12T07:05:10.480Z,23.60
2018-08-12T07:07:39.516Z,23.70
2018-08-12T07:10:11.156Z,23.80
2018-08-12T07:12:39.346Z,24.20
2018-08-12T07:15:13.696Z,24.60
2018-08-12T07:17:43.927Z,24.90
2018-08-12T07:20:12.926Z,25.20
2018-08-12T07:22:41.365Z,25.00
2018-08-12T07:25:10.993Z,25.00
2018-08-12T07:27:40.827Z,25.40
2018-08-12T07:30:11.103Z,25.50
2018-08-12T07:32:39.209Z,25.60
2018-08-12T07:35:09.504Z,26.30
2018-08-12T07:37:38.468Z,26.70
2018-08-12T07:40:09.517Z,26.80
2018-08-12T07:42:41.364Z,27.20
2018-08-12T07:45:12.603Z,27.40
2018-08-12T07:47:41.571Z,27.60
2018-08-12T07:50:11.149Z,27.70
2018-08-12T07:52:42.530Z,27.80
2018-08-12T07:55:13.350Z,28.00
2018-08-12T07:57:43.298Z,28.40
2018-08-12T08:00:14.463Z,28.60
2018-08-12T08:02:43.379Z,29.00
2018-08-12T08:05:11.960Z,29.40
2018-08-12T08:07:41.012Z,29.30
2018-08-12T08:10:13.223Z,29.70
2018-08-12T08:12:42.752Z,30.30
2018-08-12T08:15:14.655Z,30.10
2018-08-12T08:17:43.511Z,29.60
2018-08-12T08:20:14.942Z,29.60
2018-08-12T08:22:43.329Z,30.00
2018-08-12T08:25:13.141Z,30.00
2018-08-12T08:27:42.978Z,30.10
2018-08-12T08:30:13.276Z,30.90
2018-08-12T08:32:41.877Z,31.10
2018-08-12T08:35:13.207Z,30.70
2018-08-12T08:37:41.692Z,30.70
2018-08-12T08:40:12.760Z,30.90
2018-08-12T08:42:41.936Z,30.90
2018-08-12T08:45:15.508Z,31.20
2018-08-12T08:47:46.487Z,31.70
2018-08-12T08:50:19.675Z,31.20
2018-08-12T08:52:49.705Z,30.50
2018-08-12T08:55:20.110Z,29.40
2018-08-12T08:57:49.220Z,29.30
2018-08-12T09:00:20.269Z,28.30
2018-08-12T09:02:54.547Z,28.50
2018-08-12T09:05:22.763Z,28.80
2018-08-12T09:07:57.127Z,29.60
2018-08-12T09:10:25.820Z,29.80
2018-08-12T09:12:55.356Z,30.10
2018-08-12T09:15:25.561Z,30.10
2018-08-12T09:17:54.477Z,29.60
2018-08-12T09:20:23.866Z,29.20
2018-08-12T09:22:52.012Z,28.50
2018-08-12T09:25:20.625Z,28.40
2018-08-12T09:27:48.795Z,28.30
2018-08-12T09:30:19.057Z,29.00
2018-08-12T09:32:47.516Z,30.40
2018-08-12T09:35:17.920Z,31.40
2018-08-12T09:37:46.612Z,32.60
2018-08-12T09:40:16.857Z,33.30
2018-08-12T09:42:46.479Z,33.20
2018-08-12T09:45:19.266Z,33.50
2018-08-12T09:47:49.166Z,34.00
2018-08-12T09:50:18.651Z,34.90
2018-08-12T09:52:51.388Z,35.30
2018-08-12T09:55:20.331Z,35.90
2018-08-12T09:57:50.200Z,36.50
2018-08-12T10:00:25.076Z,36.90
2018-08-12T10:02:55.318Z,36.90
2018-08-12T10:05:23.618Z,37.20
2018-08-12T10:07:53.604Z,37.00
2018-08-12T10:10:26.724Z,36.30
2018-08-12T10:12:56.640Z,36.20
2018-08-12T10:15:26.107Z,36.50
2018-08-12T10:17:58.143Z,36.60
2018-08-12T10:20:27.256Z,36.70
2018-08-12T10:22:56.870Z,35.70
2018-08-12T10:25:25.372Z,35.50
2018-08-12T10:27:55.998Z,35.40
2018-08-12T10:30:25.080Z,34.70
2018-08-12T10:32:55.080Z,34.10
2018-08-12T10:35:24.167Z,34.70
2018-08-12T10:37:52.617Z,35.30
2018-08-12T10:40:21.896Z,35.40
2018-08-12T10:42:51.531Z,35.30
2018-08-12T10:45:20.672Z,35.50
2018-08-12T10:47:49.449Z,35.90
2018-08-12T10:50:20.313Z,36.30
2018-08-12T10:52:49.288Z,36.40
2018-08-12T10:55:19.508Z,35.70
2018-08-12T10:57:47.675Z,35.30
2018-08-12T11:00:25.647Z,35.20
2018-08-12T11:02:53.913Z,34.70
2018-08-12T11:05:22.107Z,33.90
2018-08-12T11:07:58.328Z,33.30
2018-08-12T11:10:27.014Z,33.20
2018-08-12T11:12:55.312Z,33.00
2018-08-12T11:15:23.901Z,33.10
2018-08-12T11:17:52.792Z,33.70
2018-08-12T11:20:22.110Z,33.60
2018-08-12T11:22:50.687Z,33.40
2018-08-12T11:25:18.903Z,33.90
2018-08-12T11:27:47.075Z,34.20
2018-08-12T11:30:16.960Z,33.90
2018-08-12T11:32:46.003Z,33.70
2018-08-12T11:35:16.276Z,33.90
2018-08-12T11:37:45.145Z,34.00
2018-08-12T11:40:14.577Z,33.80
2018-08-12T11:42:43.846Z,33.70
2018-08-12T11:45:15.008Z,33.20
2018-08-12T11:47:45.843Z,33.10
2018-08-12T11:50:16.170Z,33.00
2018-08-12T11:52:45.149Z,33.00
2018-08-12T11:55:16.273Z,33.20
2018-08-12T11:57:45.012Z,33.40
2018-08-12T12:00:17.960Z,34.10
2018-08-12T12:02:48.901Z,34.50
2018-08-12T12:05:17.489Z,34.80
2018-08-12T12:07:46.419Z,34.80
2018-08-12T12:10:18.677Z,34.40
2018-08-12T12:12:51.542Z,34.30
2018-08-12T12:15:20.913Z,34.40
2018-08-12T12:17:50.404Z,34.40
2018-08-12T12:20:19.899Z,34.30
2018-08-12T12:22:49.280Z,34.40
2018-08-12T12:25:20.133Z,34.60
2018-08-12T12:27:49.665Z,34.60
2018-08-12T12:30:20.784Z,33.70
2018-08-12T12:32:51.176Z,33.20
2018-08-12T12:35:20.058Z,33.60
2018-08-12T12:37:48.517Z,34.40
2018-08-12T12:40:22.009Z,34.90
2018-08-12T12:42:51.426Z,34.50
2018-08-12T12:45:20.141Z,33.50
2018-08-12T12:47:50.539Z,33.20
2018-08-12T12:50:22.445Z,33.80
2018-08-12T12:52:53.536Z,33.50
2018-08-12T12:55:24.176Z,32.20
2018-08-12T12:57:53.276Z,31.70
2018-08-12T13:00:23.734Z,30.90
2018-08-12T13:02:52.332Z,30.80
2018-08-12T13:05:24.672Z,30.90
2018-08-12T13:07:52.869Z,30.80
2018-08-12T13:10:21.408Z,31.50
2018-08-12T13:12:50.428Z,31.60
2018-08-12T13:15:18.681Z,32.10
2018-08-12T13:17:48.848Z,32.30
2018-08-12T13:20:18.911Z,32.30
2018-08-12T13:22:48.675Z,32.60
2018-08-12T13:25:20.610Z,32.30
2018-08-12T13:27:50.598Z,31.60
2018-08-12T13:30:20.664Z,31.90
2018-08-12T13:32:49.456Z,31.70
2018-08-12T13:35:18.166Z,32.10
2018-08-12T13:37:47.236Z,33.00
2018-08-12T13:40:18.743Z,33.10
2018-08-12T13:42:47.891Z,33.40
2018-08-12T13:45:16.826Z,33.40
2018-08-12T13:47:47.106Z,33.60
2018-08-12T13:50:19.953Z,32.40
2018-08-12T13:52:48.617Z,32.00
2018-08-12T13:55:20.635Z,32.00
2018-08-12T13:57:50.065Z,32.60
2018-08-12T14:00:23.067Z,33.80
2018-08-12T14:02:51.500Z,34.80
2018-08-12T14:05:20.058Z,34.50
2018-08-12T14:07:48.878Z,33.90
2018-08-12T14:10:18.565Z,33.00
2018-08-12T14:12:46.757Z,33.40
2018-08-12T14:15:17.524Z,33.40
2018-08-12T14:17:47.061Z,33.50
2018-08-12T14:20:17.629Z,33.10
2018-08-12T14:22:46.436Z,32.90
2018-08-12T14:25:14.628Z,32.40
2018-08-12T14:27:44.324Z,32.60
2018-08-12T14:30:22.397Z,33.30
2018-08-12T14:32:50.900Z,32.20
2018-08-12T14:35:23.057Z,31.70
2018-08-12T14:37:52.432Z,32.10
2018-08-12T14:40:20.616Z,31.70
2018-08-12T14:42:50.940Z,31.70
2018-08-12T14:45:20.823Z,30.80
2018-08-12T14:47:49.838Z,30.30
2018-08-12T14:50:20.343Z,29.70
2018-08-12T14:52:50.057Z,29.50
2018-08-12T14:55:19.716Z,29.40
2018-08-12T14:57:48.050Z,29.60
2018-08-12T15:00:21.568Z,30.20
2018-08-12T15:02:51.188Z,31.00
2018-08-12T15:05:21.240Z,30.80
2018-08-12T15:07:50.292Z,29.70
2018-08-12T15:10:24.502Z,29.30
2018-08-12T15:12:53.647Z,28.80
2018-08-12T15:15:24.232Z,28.90
2018-08-12T15:17:53.510Z,28.60
2018-08-12T15:20:21.782Z,28.90
2018-08-12T15:22:51.040Z,28.50
2018-08-12T15:25:20.533Z,28.60
2018-08-12T15:27:49.752Z,28.60
2018-08-12T15:30:19.505Z,28.30
2018-08-12T15:32:48.327Z,28.20
2018-08-12T15:35:20.137Z,28.50
2018-08-12T15:37:49.163Z,28.20
2018-08-12T15:40:17.326Z,28.60
2018-08-12T15:42:46.312Z,28.70
2018-08-12T15:45:16.319Z,28.40
2018-08-12T15:47:45.563Z,28.20
2018-08-12T15:50:15.836Z,28.70
2018-08-12T15:52:46.556Z,28.80
2018-08-12T15:55:16.688Z,28.60
2018-08-12T15:57:45.208Z,28.70
2018-08-12T16:00:17.281Z,29.20
2018-08-12T16:02:46.464Z,30.00
2018-08-12T16:05:14.635Z,30.20
2018-08-12T16:07:44.240Z,30.00
2018-08-12T16:10:15.378Z,29.40
2018-08-12T16:12:45.508Z,29.50
2018-08-12T16:15:14.513Z,30.00
2018-08-12T16:17:42.874Z,30.30
2018-08-12T16:20:12.509Z,30.60
2018-08-12T16:22:42.240Z,30.80
2018-08-12T16:25:13.952Z,31.00
2018-08-12T16:27:47.760Z,30.90
2018-08-12T16:30:17.782Z,30.50
2018-08-12T16:32:50.422Z,29.60
2018-08-12T16:35:20.110Z,29.20
2018-08-12T16:37:50.408Z,28.50
2018-08-12T16:40:20.548Z,27.70
2018-08-12T16:42:48.993Z,27.30
2018-08-12T16:45:20.320Z,27.00
2018-08-12T16:47:49.424Z,26.80
2018-08-12T16:50:18.911Z,26.50
2018-08-12T16:52:48.669Z,26.40
2018-08-12T16:55:18.377Z,26.60
2018-08-12T16:57:48.240Z,26.50
2018-08-12T17:00:20.535Z,26.40
2018-08-12T17:02:56.014Z,26.60
2018-08-12T17:05:24.455Z,26.80
2018-08-12T17:07:56.860Z,26.90
2018-08-12T17:10:24.996Z,26.90
2018-08-12T17:12:54.097Z,26.60
2018-08-12T17:15:23.431Z,26.30
2018-08-12T17:17:52.286Z,26.20
2018-08-12T17:20:21.981Z,25.90
2018-08-12T17:22:50.181Z,25.90
2018-08-12T17:25:19.250Z,25.80
2018-08-12T17:27:47.815Z,25.70
2018-08-12T17:30:16.748Z,25.90
2018-08-12T17:32:47.580Z,25.90
2018-08-12T17:35:16.207Z,25.80
2018-08-12T17:37:45.892Z,25.70
2018-08-12T17:40:15.529Z,25.70
2018-08-12T17:42:43.707Z,25.50
2018-08-12T17:45:13.288Z,25.40
2018-08-12T17:47:44.384Z,25.40
2018-08-12T17:50:14.963Z,25.30
2018-08-12T17:52:45.440Z,25.30
2018-08-12T17:55:13.625Z,25.30
2018-08-12T17:57:42.037Z,25.30
2018-08-12T18:00:15.242Z,25.20
2018-08-12T18:02:47.528Z,25.20
2018-08-12T18:05:15.728Z,25.30
2018-08-12T18:07:44.256Z,25.30
2018-08-12T18:10:13.941Z,25.20
2018-08-12T18:12:44.982Z,25.10
2018-08-12T18:15:13.539Z,25.00
2018-08-12T18:17:42.357Z,25.00
2018-08-12T18:20:11.918Z,25.00
2018-08-12T18:22:40.727Z,24.90
2018-08-12T18:25:10.994Z,24.80
2018-08-12T18:27:40.304Z,24.70
2018-08-12T18:30:12.660Z,24.60
2018-08-12T18:32:44.276Z,24.30
2018-08-12T18:35:13.710Z,24.00
2018-08-12T18:37:43.512Z,23.70
2018-08-12T18:40:13.529Z,23.50
2018-08-12T18:42:42.344Z,23.40
2018-08-12T18:45:10.820Z,23.30
2018-08-12T18:47:40.863Z,23.20
2018-08-12T18:50:11.684Z,23.00
2018-08-12T18:52:40.317Z,22.70
2018-08-12T18:55:11.596Z,22.50
2018-08-12T18:57:41.711Z,22.20
2018-08-12T19:00:12.275Z,22.00
2018-08-12T19:02:40.606Z,21.80
2018-08-12T19:05:09.811Z,21.70
2018-08-12T19:07:39.140Z,21.50
2018-08-12T19:10:08.736Z,21.20
2018-08-12T19:12:37.357Z,20.90
2018-08-12T19:15:07.252Z,20.80
2018-08-12T19:17:37.048Z,20.70
2018-08-12T19:20:08.225Z,20.60
2018-08-12T19:22:39.828Z,20.50
2018-08-12T19:25:09.452Z,20.40
2018-08-12T19:27:38.730Z,20.20
2018-08-12T19:30:09.484Z,20.00
2018-08-12T19:32:40.489Z,19.90
2018-08-12T19:35:12.172Z,19.80
2018-08-12T19:37:40.569Z,19.80
2018-08-12T19:40:09.598Z,19.80
2018-08-12T19:42:40.014Z,19.90
2018-08-12T19:45:08.884Z,19.90
2018-08-12T19:47:39.152Z,19.90
2018-08-12T19:50:09.358Z,20.00
2018-08-12T19:52:38.323Z,20.00
2018-08-12T19:55:08.608Z,19.90
2018-08-12T19:57:38.183Z,19.80
2018-08-12T20:00:09.467Z,19.70
2018-08-12T20:02:38.465Z,19.70
2018-08-12T20:05:07.688Z,19.60
2018-08-12T20:07:35.927Z,19.60
2018-08-12T20:10:04.748Z,19.50
2018-08-12T20:12:32.975Z,19.50
2018-08-12T20:15:03.524Z,19.40
2018-08-12T20:17:34.031Z,19.40
2018-08-12T20:20:02.213Z,19.40
2018-08-12T20:22:30.764Z,19.30
2018-08-12T20:25:00.309Z,19.20
2018-08-12T20:27:28.444Z,19.10
2018-08-12T20:29:56.649Z,19.10
2018-08-12T20:32:26.065Z,19.00
2018-08-12T20:34:54.242Z,19.00
2018-08-12T20:37:22.408Z,18.90
2018-08-12T20:39:51.206Z,18.90
2018-08-12T20:42:19.350Z,18.70
2018-08-12T20:44:47.517Z,18.60
2018-08-12T20:47:16.927Z,18.70
2018-08-12T20:49:45.146Z,18.60
2018-08-12T20:52:14.273Z,18.60
2018-08-12T20:54:42.691Z,18.60
2018-08-12T20:57:11.416Z,18.60
2018-08-12T20:59:41.042Z,18.50
2018-08-12T21:02:10.656Z,18.40
2018-08-12T21:04:38.860Z,18.20
2018-08-12T21:07:07.528Z,18.10
2018-08-12T21:09:38.112Z,18.10
2018-08-12T21:12:08.018Z,18.10
2018-08-12T21:14:36.712Z,18.10
2018-08-12T21:17:05.662Z,18.00
2018-08-12T21:19:33.862Z,17.90
2018-08-12T21:22:02.636Z,17.80
2018-08-12T21:24:30.758Z,17.70
2018-08-12T21:26:59.904Z,17.80
2018-08-12T21:29:29.369Z,17.80
2018-08-12T21:31:58.121Z,17.80
2018-08-12T21:34:27.290Z,17.80
2018-08-12T21:36:56.011Z,17.80
2018-08-12T21:39:24.260Z,17.80
2018-08-12T21:41:52.670Z,17.70
2018-08-12T21:44:21.183Z,17.60
2018-08-12T21:46:52.148Z,17.60
2018-08-12T21:49:22.745Z,17.60
2018-08-12T21:51:53.615Z,17.50
2018-08-12T21:54:22.749Z,17.40
2018-08-12T21:56:50.941Z,17.40
2018-08-12T21:59:19.740Z,17.20
2018-08-12T22:01:48.893Z,17.00
2018-08-12T22:04:19.335Z,16.80
2018-08-12T22:06:48.156Z,16.60
2018-08-12T22:09:16.997Z,16.50
2018-08-12T22:11:45.530Z,16.60
2018-08-12T22:14:15.173Z,16.60
2018-08-12T22:16:44.085Z,16.60
2018-08-12T22:19:12.743Z,16.60
2018-08-12T22:21:41.549Z,16.60
2018-08-12T22:24:10.052Z,16.60
2018-08-12T22:26:39.296Z,16.50
2018-08-12T22:29:08.560Z,16.30
2018-08-12T22:31:37.909Z,16.10
2018-08-12T22:34:06.952Z,16.00
2018-08-12T22:36:35.108Z,16.10
2018-08-12T22:39:05.647Z,16.00
2018-08-12T22:41:34.070Z,16.00
2018-08-12T22:44:02.676Z,15.90
2018-08-12T22:46:31.150Z,15.90
2018-08-12T22:48:59.368Z,15.90
2018-08-12T22:51:28.171Z,15.90
2018-08-12T22:53:56.672Z,15.90
2018-08-12T22:56:25.590Z,15.90
2018-08-12T22:58:55.373Z,15.90
2018-08-12T23:01:26.220Z,15.90
2018-08-12T23:03:54.774Z,15.90
2018-08-12T23:06:23.765Z,15.90
2018-08-12T23:08:52.948Z,15.80
2018-08-12T23:11:22.035Z,15.60
2018-08-12T23:13:50.191Z,15.50
2018-08-12T23:16:30.880Z,15.60
2018-08-12T23:19:03.092Z,15.70
2018-08-12T23:21:31.425Z,15.50
2018-08-12T23:24:00.328Z,15.30
2018-08-12T23:26:28.560Z,15.30
2018-08-12T23:28:57.207Z,15.30
2018-08-12T23:31:25.956Z,15.30
2018-08-12T23:33:54.437Z,15.30
2018-08-12T23:36:23.843Z,15.40
2018-08-12T23:38:53.827Z,15.40
2018-08-12T23:41:22.007Z,15.30
2018-08-12T23:43:52.227Z,15.20
2018-08-12T23:46:21.737Z,15.10
2018-08-12T23:48:51.209Z,15.00
2018-08-12T23:51:19.368Z,15.10
2018-08-12T23:53:48.072Z,15.20
2018-08-12T23:56:16.773Z,15.30
2018-08-12T23:58:45.292Z,15.30
